createdAt,value
2019-01-28T00:02:04.666Z,3.23
2019-01-28T00:04:35.095Z,3.70
2019-01-28T00:07:05.640Z,3.73
2019-01-28T00:09:36.109Z,3.80
2019-01-28T00:12:06.904Z,3.63
2019-01-28T00:14:37.323Z,3.90
2019-01-28T00:17:08.665Z,4.27
2019-01-28T00:19:39.087Z,4.33
2019-01-28T00:22:09.507Z,4.27
2019-01-28T00:24:39.978Z,4.80
2019-01-28T00:27:10.446Z,4.33
2019-01-28T00:29:40.866Z,4.03
2019-01-28T00:32:11.337Z,5.03
2019-01-28T00:34:42.135Z,4.87
2019-01-28T00:37:14.131Z,4.40
2019-01-28T00:39:44.604Z,5.03
2019-01-28T00:42:15.437Z,5.57
2019-01-28T00:44:45.866Z,5.03
2019-01-28T00:47:16.320Z,5.77
2019-01-28T00:49:46.742Z,5.03
2019-01-28T00:52:18.155Z,5.20
2019-01-28T00:54:48.632Z,6.20
2019-01-28T00:57:19.062Z,6.13
2019-01-28T00:59:49.489Z,5.83
2019-01-28T01:02:19.962Z,5.80
2019-01-28T01:04:50.503Z,5.80
2019-01-28T01:07:22.538Z,5.57
2019-01-28T01:09:53.007Z,5.83
2019-01-28T01:12:23.765Z,6.27
2019-01-28T01:14:54.541Z,5.80
2019-01-28T01:17:25.022Z,5.47
2019-01-28T01:19:55.508Z,6.10
2019-01-28T01:22:26.306Z,5.70
2019-01-28T01:24:56.797Z,6.13
2019-01-28T01:27:27.228Z,5.70
2019-01-28T01:29:57.646Z,5.80
2019-01-28T01:32:29.416Z,5.30
2019-01-28T01:34:59.884Z,5.17
2019-01-28T01:37:30.258Z,5.63
2019-01-28T01:40:00.731Z,5.77
2019-01-28T01:42:31.157Z,5.13
2019-01-28T01:45:01.588Z,5.73
2019-01-28T01:47:32.054Z,5.17
2019-01-28T01:50:02.487Z,5.50
2019-01-28T01:52:32.902Z,5.53
2019-01-28T01:55:03.375Z,5.53
2019-01-28T01:57:34.248Z,6.53
2019-01-28T02:00:07.330Z,5.30
2019-01-28T02:02:37.794Z,5.37
2019-01-28T02:05:08.728Z,5.63
2019-01-28T02:07:39.434Z,5.20
2019-01-28T02:10:11.874Z,4.57
2019-01-28T02:12:42.402Z,5.03
2019-01-28T02:15:16.052Z,4.40
2019-01-28T02:17:47.115Z,4.70
2019-01-28T02:20:17.998Z,4.50
2019-01-28T02:22:48.820Z,4.23
2019-01-28T02:25:19.391Z,5.13
2019-01-28T02:27:50.084Z,4.70
2019-01-28T02:30:20.509Z,4.70
2019-01-28T02:32:50.990Z,4.57
2019-01-28T02:35:21.415Z,5.13
2019-01-28T02:37:51.842Z,4.57
2019-01-28T02:40:22.324Z,5.13
2019-01-28T02:42:52.765Z,5.63
2019-01-28T02:45:23.190Z,5.57
2019-01-28T02:47:53.670Z,5.53
2019-01-28T02:50:24.443Z,5.57
2019-01-28T02:52:54.866Z,5.47
2019-01-28T02:55:25.338Z,5.13
2019-01-28T02:57:55.921Z,5.27
2019-01-28T03:00:26.716Z,5.53
2019-01-28T03:02:57.195Z,5.23
2019-01-28T03:05:28.000Z,5.47
2019-01-28T03:07:58.715Z,5.33
2019-01-28T03:10:29.487Z,5.00
2019-01-28T03:13:00.278Z,5.90
2019-01-28T03:15:30.698Z,5.77
2019-01-28T03:18:01.176Z,5.80
2019-01-28T03:20:31.597Z,5.83
2019-01-28T03:23:02.029Z,6.13
2019-01-28T03:25:32.779Z,6.00
2019-01-28T03:28:03.213Z,5.73
2019-01-28T03:30:34.009Z,5.80
2019-01-28T03:33:04.529Z,5.37
2019-01-28T03:35:34.942Z,6.30
2019-01-28T03:38:05.385Z,6.40
2019-01-28T03:40:35.877Z,6.13
2019-01-28T03:43:06.320Z,5.90
2019-01-28T03:45:37.203Z,6.80
2019-01-28T03:48:07.683Z,6.87
2019-01-28T03:50:38.108Z,7.37
2019-01-28T03:53:08.616Z,7.00
2019-01-28T03:55:39.095Z,6.53
2019-01-28T03:58:10.235Z,7.00
2019-01-28T04:00:40.672Z,7.03
2019-01-28T04:03:11.147Z,6.83
2019-01-28T04:05:41.677Z,7.10
2019-01-28T04:08:13.116Z,7.37
2019-01-28T04:10:43.963Z,7.50
2019-01-28T04:13:14.438Z,7.57
2019-01-28T04:15:44.821Z,7.33
2019-01-28T04:18:15.538Z,7.30
2019-01-28T04:20:45.970Z,7.50
2019-01-28T04:23:16.390Z,7.03
2019-01-28T04:25:46.945Z,7.30
2019-01-28T04:28:17.372Z,6.83
2019-01-28T04:30:47.797Z,6.67
2019-01-28T04:33:18.275Z,7.00
2019-01-28T04:35:48.697Z,6.37
2019-01-28T04:38:19.121Z,6.77
2019-01-28T04:40:49.594Z,6.00
2019-01-28T04:43:20.018Z,6.20
2019-01-28T04:45:50.446Z,5.93
2019-01-28T04:48:20.916Z,5.87
2019-01-28T04:50:51.612Z,6.03
2019-01-28T04:53:22.039Z,5.70
2019-01-28T04:55:52.505Z,5.83
2019-01-28T04:58:23.361Z,6.00
2019-01-28T05:00:54.240Z,5.30
2019-01-28T05:03:24.715Z,5.50
2019-01-28T05:05:55.131Z,4.73
2019-01-28T05:08:25.555Z,5.23
2019-01-28T05:10:56.034Z,4.30
2019-01-28T05:13:26.459Z,4.63
2019-01-28T05:15:56.919Z,4.20
2019-01-28T05:18:27.618Z,4.20
2019-01-28T05:20:58.033Z,3.97
2019-01-28T05:23:28.496Z,4.27
2019-01-28T05:25:59.291Z,3.87
2019-01-28T05:28:29.771Z,4.00
2019-01-28T05:31:00.178Z,4.07
2019-01-28T05:33:30.599Z,4.00
2019-01-28T05:36:01.050Z,3.60
2019-01-28T05:38:31.470Z,3.70
2019-01-28T05:41:02.371Z,3.60
2019-01-28T05:43:32.794Z,3.37
2019-01-28T05:46:03.228Z,3.57
2019-01-28T05:48:33.842Z,3.67
2019-01-28T05:51:04.363Z,3.50
2019-01-28T05:53:35.103Z,3.80
2019-01-28T05:56:05.732Z,3.77
2019-01-28T05:58:36.516Z,3.70
2019-01-28T06:01:07.331Z,4.00
2019-01-28T06:03:37.770Z,3.73
2019-01-28T06:06:08.416Z,3.20
2019-01-28T06:08:38.835Z,3.67
2019-01-28T06:11:09.256Z,3.50
2019-01-28T06:13:39.705Z,3.33
2019-01-28T06:16:10.392Z,3.67
2019-01-28T06:18:40.846Z,3.67
2019-01-28T06:21:11.272Z,3.57
2019-01-28T06:23:41.691Z,3.60
2019-01-28T06:26:12.143Z,3.90
2019-01-28T06:28:43.085Z,3.60
2019-01-28T06:31:14.483Z,3.73
2019-01-28T06:33:44.883Z,3.70
2019-01-28T06:36:15.370Z,3.40
2019-01-28T06:38:45.852Z,3.90
2019-01-28T06:41:16.250Z,3.63
2019-01-28T06:43:46.720Z,3.90
2019-01-28T06:46:17.147Z,3.70
2019-01-28T06:48:47.573Z,3.20
2019-01-28T06:51:18.398Z,3.23
2019-01-28T06:53:49.248Z,3.27
2019-01-28T06:56:19.672Z,3.40
2019-01-28T06:58:50.447Z,3.50
2019-01-28T07:01:21.190Z,3.30
2019-01-28T07:03:51.973Z,3.63
2019-01-28T07:06:22.846Z,2.93
2019-01-28T07:08:53.544Z,2.80
2019-01-28T07:11:23.971Z,2.87
2019-01-28T07:13:54.440Z,3.07
2019-01-28T07:16:24.867Z,2.87
2019-01-28T07:18:55.288Z,2.70
2019-01-28T07:21:25.751Z,2.90
2019-01-28T07:23:56.271Z,2.33
2019-01-28T07:26:26.735Z,2.70
2019-01-28T07:28:57.535Z,2.50
2019-01-28T07:31:27.955Z,2.20
2019-01-28T07:33:58.518Z,2.50
2019-01-28T07:36:29.030Z,2.50
2019-01-28T07:38:59.499Z,2.20
2019-01-28T07:41:29.919Z,2.33
2019-01-28T07:44:01.134Z,2.00
2019-01-28T07:46:31.587Z,2.00
2019-01-28T07:49:02.012Z,2.00
2019-01-28T07:51:32.552Z,2.33
2019-01-28T07:54:03.327Z,1.80
2019-01-28T07:56:33.752Z,1.60
2019-01-28T07:59:04.225Z,1.53
2019-01-28T08:01:34.653Z,1.80
2019-01-28T08:04:05.334Z,1.73
2019-01-28T08:06:35.787Z,1.70
2019-01-28T08:09:08.962Z,1.57
2019-01-28T08:11:39.411Z,1.50
2019-01-28T08:14:09.830Z,1.67
2019-01-28T08:16:40.292Z,2.07
2019-01-28T08:19:10.711Z,1.97
2019-01-28T08:21:41.575Z,1.50
2019-01-28T08:24:12.026Z,1.57
2019-01-28T08:26:43.110Z,1.87
2019-01-28T08:29:13.960Z,2.00
2019-01-28T08:31:44.379Z,1.80
2019-01-28T08:34:14.811Z,1.50
2019-01-28T08:36:45.262Z,1.40
2019-01-28T08:39:15.684Z,1.63
2019-01-28T08:41:46.154Z,1.70
2019-01-28T08:44:16.573Z,1.67
2019-01-28T08:46:46.993Z,1.30
2019-01-28T08:49:17.622Z,1.33
2019-01-28T08:51:48.039Z,1.40
2019-01-28T08:54:18.515Z,1.77
2019-01-28T08:56:48.938Z,1.30
2019-01-28T08:59:19.355Z,1.60
2019-01-28T09:01:49.812Z,1.80
2019-01-28T09:04:20.236Z,1.43
2019-01-28T09:06:50.727Z,1.50
2019-01-28T09:09:21.302Z,1.30
2019-01-28T09:11:51.928Z,1.53
2019-01-28T09:14:22.373Z,1.50
2019-01-28T09:16:52.797Z,1.60
2019-01-28T09:19:23.268Z,3.70
2019-01-28T09:21:53.694Z,3.10
2019-01-28T09:24:24.531Z,1.80
2019-01-28T09:26:54.985Z,1.40
2019-01-28T09:29:25.403Z,1.53
2019-01-28T09:31:55.872Z,1.30
2019-01-28T09:34:26.447Z,1.20
2019-01-28T09:36:57.037Z,1.40
2019-01-28T09:39:27.484Z,1.43
2019-01-28T09:41:57.905Z,1.27
2019-01-28T09:44:28.403Z,1.20
2019-01-28T09:46:58.824Z,0.97
2019-01-28T09:49:29.248Z,1.20
2019-01-28T09:51:59.699Z,1.10
2019-01-28T09:54:30.223Z,1.20
2019-01-28T09:57:01.075Z,1.30
2019-01-28T09:59:31.500Z,1.20
2019-01-28T10:02:01.926Z,1.13
2019-01-28T10:04:32.365Z,1.13
2019-01-28T10:07:03.162Z,1.30
2019-01-28T10:09:33.643Z,1.30
2019-01-28T10:12:04.387Z,1.20
2019-01-28T10:14:35.176Z,1.20
2019-01-28T10:17:05.911Z,1.47
2019-01-28T10:19:36.711Z,1.50
2019-01-28T10:22:07.523Z,1.60
2019-01-28T10:24:37.948Z,1.87
2019-01-28T10:27:08.416Z,1.30
2019-01-28T10:29:38.819Z,1.60
2019-01-28T10:32:09.691Z,1.97
2019-01-28T10:34:40.111Z,1.90
2019-01-28T10:37:10.635Z,1.50
2019-01-28T10:39:41.080Z,1.50
2019-01-28T10:42:12.180Z,1.30
2019-01-28T10:44:43.016Z,1.10
2019-01-28T10:47:13.471Z,1.27
2019-01-28T10:49:43.941Z,1.40
2019-01-28T10:52:14.367Z,1.40
2019-01-28T10:54:45.138Z,1.10
2019-01-28T10:57:15.580Z,1.40
2019-01-28T10:59:45.994Z,1.40
2019-01-28T11:02:16.459Z,1.50
2019-01-28T11:04:46.882Z,1.90
2019-01-28T11:07:17.331Z,1.80
2019-01-28T11:09:47.791Z,1.20
2019-01-28T11:12:18.212Z,1.90
2019-01-28T11:14:48.707Z,1.40
2019-01-28T11:17:19.106Z,2.20
2019-01-28T11:19:50.588Z,2.00
2019-01-28T11:22:21.015Z,1.50
2019-01-28T11:24:51.412Z,2.10
2019-01-28T11:27:21.883Z,1.40
2019-01-28T11:29:52.317Z,1.97
2019-01-28T11:32:23.274Z,1.60
2019-01-28T11:34:53.803Z,1.70
2019-01-28T11:37:24.184Z,2.07
2019-01-28T11:39:54.730Z,1.97
2019-01-28T11:42:25.162Z,1.87
2019-01-28T11:44:55.565Z,1.63
2019-01-28T11:47:26.770Z,2.57
2019-01-28T11:49:57.701Z,2.70
2019-01-28T11:52:28.193Z,2.80
2019-01-28T11:54:58.612Z,3.10
2019-01-28T11:57:29.082Z,2.93
2019-01-28T11:59:59.623Z,2.53
2019-01-28T12:02:34.508Z,2.90
2019-01-28T12:05:02.741Z,2.50
2019-01-28T12:07:33.186Z,2.30
2019-01-28T12:10:05.604Z,1.83
2019-01-28T12:12:36.023Z,1.83
2019-01-28T12:15:08.007Z,1.93
2019-01-28T12:17:38.429Z,1.90
2019-01-28T12:20:09.746Z,1.60
2019-01-28T12:22:40.598Z,1.60
2019-01-28T12:25:12.328Z,1.47
2019-01-28T12:27:43.387Z,1.67
2019-01-28T12:30:23.290Z,1.50
2019-01-28T12:32:53.766Z,1.40
2019-01-28T12:35:24.297Z,2.83
2019-01-28T12:37:54.727Z,2.50
2019-01-28T12:40:26.271Z,3.70
2019-01-28T12:42:56.802Z,5.87
2019-01-28T12:45:27.687Z,5.90
2019-01-28T12:47:58.122Z,6.03
2019-01-28T12:50:28.748Z,2.90
2019-01-28T12:52:59.210Z,2.60
2019-01-28T12:55:30.680Z,1.50
2019-01-28T12:58:01.759Z,1.50
2019-01-28T13:00:40.099Z,1.10
2019-01-28T13:03:11.716Z,1.10
2019-01-28T13:05:42.188Z,1.27
2019-01-28T13:08:12.638Z,1.27
2019-01-28T13:10:43.107Z,1.30
2019-01-28T13:13:13.625Z,1.20
2019-01-28T13:15:44.092Z,1.13
2019-01-28T13:18:14.526Z,1.40
2019-01-28T13:20:44.944Z,1.10
2019-01-28T13:23:15.391Z,1.00
2019-01-28T13:25:45.819Z,1.10
2019-01-28T13:28:16.306Z,1.20
2019-01-28T13:30:46.736Z,1.00
2019-01-28T13:33:18.062Z,1.30
2019-01-28T13:35:48.522Z,1.50
2019-01-28T13:38:18.938Z,1.10
2019-01-28T13:40:49.858Z,1.20
2019-01-28T13:43:20.284Z,1.17
2019-01-28T13:45:50.705Z,1.10
2019-01-28T13:48:21.239Z,1.20
2019-01-28T13:50:51.669Z,1.40
2019-01-28T13:53:22.242Z,1.20
2019-01-28T13:55:52.676Z,1.30
2019-01-28T13:58:23.099Z,1.50
2019-01-28T14:00:53.543Z,1.70
2019-01-28T14:03:23.981Z,1.50
2019-01-28T14:05:54.579Z,1.40
2019-01-28T14:08:25.002Z,1.50
2019-01-28T14:10:55.425Z,1.50
2019-01-28T14:13:25.875Z,1.70
2019-01-28T14:15:56.630Z,1.63
2019-01-28T14:18:27.107Z,1.50
2019-01-28T14:21:00.874Z,2.10
2019-01-28T14:23:31.471Z,1.77
2019-01-28T14:26:02.362Z,1.80
2019-01-28T14:28:32.784Z,1.70
2019-01-28T14:31:03.286Z,1.90
2019-01-28T14:33:34.081Z,1.83
2019-01-28T14:36:05.073Z,2.23
2019-01-28T14:38:35.507Z,2.33
2019-01-28T14:41:05.934Z,2.40
2019-01-28T14:43:36.390Z,2.03
2019-01-28T14:46:06.819Z,2.27
2019-01-28T14:48:37.290Z,2.33
2019-01-28T14:51:07.714Z,2.90
2019-01-28T14:53:38.139Z,3.73
2019-01-28T14:56:08.669Z,3.83
2019-01-28T14:58:39.464Z,3.77
2019-01-28T15:01:10.280Z,4.90
2019-01-28T15:03:41.034Z,4.47
2019-01-28T15:06:11.572Z,5.10
2019-01-28T15:08:42.363Z,5.50
2019-01-28T15:11:13.258Z,5.13
2019-01-28T15:13:43.720Z,4.70
2019-01-28T15:16:14.935Z,4.60
2019-01-28T15:18:45.395Z,4.90
2019-01-28T15:21:15.807Z,5.17
2019-01-28T15:23:46.279Z,6.00
2019-01-28T15:26:17.159Z,6.37
2019-01-28T15:28:47.682Z,6.37
2019-01-28T15:31:18.126Z,6.20
2019-01-28T15:33:48.546Z,6.03
2019-01-28T15:36:19.012Z,6.07
2019-01-28T15:38:49.465Z,6.60
2019-01-28T15:41:19.892Z,6.67
2019-01-28T15:43:50.353Z,7.37
2019-01-28T15:46:20.781Z,8.67
2019-01-28T15:48:51.262Z,7.33
2019-01-28T15:51:21.958Z,8.90
2019-01-28T15:53:52.757Z,8.97
2019-01-28T15:56:23.217Z,10.23
2019-01-28T15:58:53.711Z,10.63
2019-01-28T16:01:24.216Z,11.57
2019-01-28T16:03:55.037Z,10.83
2019-01-28T16:06:25.499Z,12.50
2019-01-28T16:08:55.970Z,14.47
2019-01-28T16:11:26.410Z,15.07
2019-01-28T16:13:56.906Z,16.73
2019-01-28T16:16:27.445Z,19.13
2019-01-28T16:18:57.880Z,19.93
2019-01-28T16:21:28.718Z,19.07
2019-01-28T16:23:59.156Z,19.20
2019-01-28T16:26:29.669Z,19.90
2019-01-28T16:29:00.117Z,19.00
2019-01-28T16:31:30.558Z,21.43
2019-01-28T16:34:01.044Z,20.87
2019-01-28T16:36:31.573Z,17.57
2019-01-28T16:39:02.049Z,16.23
2019-01-28T16:41:32.501Z,15.77
2019-01-28T16:44:04.704Z,14.43
2019-01-28T16:46:35.190Z,15.90
2019-01-28T16:49:06.002Z,16.10
2019-01-28T16:51:36.437Z,15.17
2019-01-28T16:54:06.930Z,15.27
2019-01-28T16:56:37.366Z,14.80
2019-01-28T16:59:07.810Z,17.30
2019-01-28T17:01:38.305Z,17.63
2019-01-28T17:04:09.117Z,16.97
2019-01-28T17:06:39.594Z,17.17
2019-01-28T17:09:11.040Z,16.93
2019-01-28T17:11:41.492Z,16.57
2019-01-28T17:14:11.918Z,17.33
2019-01-28T17:16:42.672Z,18.00
2019-01-28T17:19:13.111Z,18.73
2019-01-28T17:21:43.656Z,18.10
2019-01-28T17:24:14.143Z,18.27
2019-01-28T17:26:45.682Z,19.80
2019-01-28T17:29:16.622Z,19.33
2019-01-28T17:31:47.108Z,19.43
2019-01-28T17:34:17.934Z,20.30
2019-01-28T17:36:48.772Z,15.90
2019-01-28T17:39:20.329Z,13.27
2019-01-28T17:41:50.783Z,9.47
2019-01-28T17:44:21.214Z,6.03
2019-01-28T17:46:51.698Z,5.13
2019-01-28T17:49:23.494Z,4.97
2019-01-28T17:51:53.921Z,5.50
2019-01-28T17:54:24.442Z,5.87
2019-01-28T17:56:54.923Z,6.07
2019-01-28T17:59:25.731Z,6.77
2019-01-28T18:01:56.232Z,6.63
2019-01-28T18:04:26.670Z,6.83
2019-01-28T18:06:58.214Z,7.47
2019-01-28T18:09:29.055Z,7.73
2019-01-28T18:12:00.843Z,6.80
2019-01-28T18:14:31.264Z,5.90
2019-01-28T18:17:01.744Z,5.23
2019-01-28T18:19:32.994Z,5.67
2019-01-28T18:22:03.419Z,4.87
2019-01-28T18:24:33.893Z,5.13
2019-01-28T18:27:05.251Z,5.10
2019-01-28T18:29:35.675Z,5.00
2019-01-28T18:32:06.360Z,5.73
2019-01-28T18:34:39.434Z,5.40
2019-01-28T18:37:11.795Z,5.37
2019-01-28T18:39:42.307Z,6.23
2019-01-28T18:42:12.768Z,6.10
2019-01-28T18:44:45.573Z,6.13
2019-01-28T18:47:16.072Z,5.93
2019-01-28T18:49:46.623Z,5.83
2019-01-28T18:52:17.439Z,6.33
2019-01-28T18:54:48.054Z,6.50
2019-01-28T18:57:18.503Z,6.80
2019-01-28T18:59:49.382Z,6.50
2019-01-28T19:02:19.874Z,6.47
2019-01-28T19:04:50.337Z,6.67
2019-01-28T19:07:39.311Z,6.23
2019-01-28T19:10:36.991Z,6.33
2019-01-28T19:13:12.695Z,6.63
2019-01-28T19:16:07.903Z,6.73
2019-01-28T19:18:47.651Z,6.77
2019-01-28T19:21:27.831Z,7.23
2019-01-28T19:24:00.239Z,6.33
2019-01-28T19:26:30.680Z,6.30
2019-01-28T19:29:02.233Z,5.90
2019-01-28T19:31:33.855Z,5.33
2019-01-28T19:34:04.803Z,5.23
2019-01-28T19:36:35.239Z,5.53
2019-01-28T19:39:08.743Z,5.17
2019-01-28T19:41:40.799Z,5.40
2019-01-28T19:44:11.296Z,5.47
2019-01-28T19:46:42.159Z,5.40
2019-01-28T19:49:12.925Z,5.17
2019-01-28T19:51:43.347Z,5.53
2019-01-28T19:54:14.039Z,5.67
2019-01-28T19:56:44.607Z,5.90
2019-01-28T19:59:15.351Z,6.10
2019-01-28T20:01:45.832Z,6.40
2019-01-28T20:04:16.266Z,6.23
2019-01-28T20:06:46.747Z,6.93
2019-01-28T20:09:19.227Z,6.87
2019-01-28T20:11:49.660Z,6.90
2019-01-28T20:14:22.258Z,7.13
2019-01-28T20:16:55.637Z,7.17
2019-01-28T20:19:27.019Z,7.13
2019-01-28T20:21:57.457Z,6.80
2019-01-28T20:24:27.906Z,7.10
2019-01-28T20:26:58.376Z,6.37
2019-01-28T20:29:29.461Z,6.60
2019-01-28T20:31:59.926Z,6.60
2019-01-28T20:34:30.383Z,5.30
2019-01-28T20:37:01.072Z,5.07
2019-01-28T20:39:31.787Z,4.97
2019-01-28T20:42:02.198Z,5.13
2019-01-28T20:44:32.720Z,5.33
2019-01-28T20:47:03.547Z,4.77
2019-01-28T20:49:34.043Z,5.33
2019-01-28T20:52:05.007Z,5.17
2019-01-28T20:54:37.458Z,5.03
2019-01-28T20:57:07.930Z,5.30
2019-01-28T20:59:38.350Z,5.47
2019-01-28T21:02:08.856Z,6.03
2019-01-28T21:04:39.647Z,5.73
2019-01-28T21:07:10.147Z,5.90
2019-01-28T21:09:40.623Z,6.50
2019-01-28T21:12:11.829Z,6.50
2019-01-28T21:14:44.330Z,6.63
2019-01-28T21:17:15.199Z,6.63
2019-01-28T21:19:45.592Z,6.47
2019-01-28T21:22:16.353Z,6.20
2019-01-28T21:24:46.775Z,6.50
2019-01-28T21:30:49.298Z,6.20
2019-01-28T21:33:20.505Z,6.60
2019-01-28T21:36:08.564Z,6.47
2019-01-28T21:38:45.696Z,6.93
2019-01-28T21:41:16.151Z,7.50
2019-01-28T21:43:46.597Z,8.13
2019-01-28T21:46:18.145Z,8.63
2019-01-28T21:48:49.622Z,8.70
2019-01-28T21:51:20.502Z,8.13
2019-01-28T21:53:50.942Z,8.30
2019-01-28T21:56:21.696Z,7.97
2019-01-28T21:58:52.536Z,7.97
2019-01-28T22:01:23.260Z,7.97
2019-01-28T22:03:54.222Z,8.60
2019-01-28T22:06:24.662Z,7.97
2019-01-28T22:08:55.502Z,8.50
2019-01-28T22:11:28.057Z,8.17
2019-01-28T22:13:58.414Z,8.90
2019-01-28T22:16:28.897Z,7.53
2019-01-28T22:18:59.701Z,8.00
2019-01-28T22:21:30.137Z,7.43
2019-01-28T22:24:00.591Z,6.50
2019-01-28T22:26:31.352Z,6.60
2019-01-28T22:29:02.168Z,5.27
2019-01-28T22:31:32.596Z,5.97
2019-01-28T22:34:03.019Z,5.30
2019-01-28T22:36:33.913Z,5.57
2019-01-28T22:39:06.037Z,5.30
2019-01-28T22:41:36.505Z,5.37
2019-01-28T22:44:07.034Z,4.80
2019-01-28T22:46:37.467Z,4.57
2019-01-28T22:49:07.920Z,4.43
2019-01-28T22:51:38.753Z,4.67
2019-01-28T22:54:09.240Z,4.60
2019-01-28T22:56:39.679Z,4.13
2019-01-28T22:59:10.399Z,3.80
2019-01-28T23:01:41.676Z,4.13
2019-01-28T23:04:12.373Z,3.50
2019-01-28T23:06:43.230Z,3.77
2019-01-28T23:09:14.082Z,3.83
2019-01-28T23:11:44.516Z,3.50
2019-01-28T23:14:15.460Z,3.63
2019-01-28T23:16:46.604Z,3.73
2019-01-28T23:19:17.480Z,3.17
2019-01-28T23:21:47.912Z,3.80
2019-01-28T23:24:18.345Z,3.30
2019-01-28T23:26:48.794Z,3.30
2019-01-28T23:29:19.220Z,2.80
2019-01-28T23:31:50.060Z,3.33
2019-01-28T23:34:20.494Z,3.40
2019-01-28T23:36:50.922Z,4.00
2019-01-28T23:39:21.376Z,4.27
2019-01-28T23:41:51.808Z,3.83
2019-01-28T23:44:22.660Z,3.83
2019-01-28T23:46:53.156Z,4.00
2019-01-28T23:49:24.527Z,3.77
2019-01-28T23:51:54.992Z,3.80
2019-01-28T23:54:25.436Z,3.63
2019-01-28T23:56:55.898Z,3.97
2019-01-28T23:59:26.689Z,3.97
